sensor_id;sensor_type;location;lat;lon;timestamp;P1;durP1;ratioP1;P2;durP2;ratioP2
67986;SDS011;54767;53.800;15.956;2023-05-03T00:01:59;10.80;;;4.90;;
67986;SDS011;54767;53.800;15.956;2023-05-03T00:04:30;11.60;;;5.90;;
67986;SDS011;54767;53.800;15.956;2023-05-03T00:07:00;20.30;;;9.30;;
67986;SDS011;54767;53.800;15.956;2023-05-03T00:09:29;15.20;;;7.10;;
67986;SDS011;54767;53.800;15.956;2023-05-03T00:11:58;16.20;;;7.20;;
67986;SDS011;54767;53.800;15.956;2023-05-03T00:14:28;18.50;;;7.20;;
67986;SDS011;54767;53.800;15.956;2023-05-03T00:16:56;20.40;;;8.50;;
67986;SDS011;54767;53.800;15.956;2023-05-03T00:19:25;20.10;;;8.30;;
67986;SDS011;54767;53.800;15.956;2023-05-03T00:21:58;20.40;;;8.60;;
67986;SDS011;54767;53.800;15.956;2023-05-03T00:24:28;15.50;;;7.70;;
67986;SDS011;54767;53.800;15.956;2023-05-03T00:26:56;21.20;;;8.50;;
67986;SDS011;54767;53.800;15.956;2023-05-03T00:29:25;16.10;;;7.30;;
67986;SDS011;54767;53.800;15.956;2023-05-03T00:31:54;12.40;;;6.30;;
67986;SDS011;54767;53.800;15.956;2023-05-03T00:34:22;15.60;;;6.80;;
67986;SDS011;54767;53.800;15.956;2023-05-03T00:36:50;13.70;;;6.10;;
67986;SDS011;54767;53.800;15.956;2023-05-03T00:39:19;13.60;;;6.90;;
67986;SDS011;54767;53.800;15.956;2023-05-03T00:41:48;13.60;;;6.00;;
67986;SDS011;54767;53.800;15.956;2023-05-03T00:44:16;14.20;;;6.40;;
67986;SDS011;54767;53.800;15.956;2023-05-03T00:46:45;14.80;;;7.10;;
67986;SDS011;54767;53.800;15.956;2023-05-03T00:49:13;16.10;;;7.00;;
67986;SDS011;54767;53.800;15.956;2023-05-03T00:51:41;14.70;;;6.50;;
67986;SDS011;54767;53.800;15.956;2023-05-03T00:54:10;11.40;;;5.50;;
67986;SDS011;54767;53.800;15.956;2023-05-03T00:56:39;9.00;;;5.10;;
67986;SDS011;54767;53.800;15.956;2023-05-03T00:59:18;9.00;;;4.60;;
67986;SDS011;54767;53.800;15.956;2023-05-03T01:01:50;9.80;;;4.80;;
67986;SDS011;54767;53.800;15.956;2023-05-03T01:04:20;10.00;;;5.30;;
67986;SDS011;54767;53.800;15.956;2023-05-03T01:09:55;8.80;;;4.40;;
67986;SDS011;54767;53.800;15.956;2023-05-03T01:12:40;8.70;;;4.30;;
67986;SDS011;54767;53.800;15.956;2023-05-03T01:18:17;9.50;;;5.00;;
67986;SDS011;54767;53.800;15.956;2023-05-03T01:20:50;11.60;;;6.00;;
67986;SDS011;54767;53.800;15.956;2023-05-03T01:26:19;9.80;;;5.80;;
67986;SDS011;54767;53.800;15.956;2023-05-03T01:28:50;9.60;;;5.80;;
67986;SDS011;54767;53.800;15.956;2023-05-03T01:31:30;15.10;;;8.00;;
67986;SDS011;54767;53.800;15.956;2023-05-03T01:34:10;16.00;;;7.80;;
67986;SDS011;54767;53.800;15.956;2023-05-03T01:36:44;11.10;;;6.10;;
67986;SDS011;54767;53.800;15.956;2023-05-03T01:39:20;7.30;;;5.00;;
67986;SDS011;54767;53.800;15.956;2023-05-03T01:41:51;9.80;;;4.80;;
67986;SDS011;54767;53.800;15.956;2023-05-03T01:44:20;8.20;;;4.70;;
67986;SDS011;54767;53.800;15.956;2023-05-03T01:46:50;9.00;;;5.10;;
67986;SDS011;54767;53.800;15.956;2023-05-03T01:49:19;9.60;;;4.80;;
67986;SDS011;54767;53.800;15.956;2023-05-03T01:51:47;6.00;;;4.40;;
67986;SDS011;54767;53.800;15.956;2023-05-03T01:54:15;9.60;;;5.00;;
67986;SDS011;54767;53.800;15.956;2023-05-03T01:56:44;8.20;;;4.60;;
67986;SDS011;54767;53.800;15.956;2023-05-03T01:59:13;8.50;;;4.70;;
67986;SDS011;54767;53.800;15.956;2023-05-03T02:01:42;9.00;;;4.70;;
67986;SDS011;54767;53.800;15.956;2023-05-03T02:04:10;8.50;;;4.50;;
67986;SDS011;54767;53.800;15.956;2023-05-03T02:06:39;8.60;;;5.10;;
67986;SDS011;54767;53.800;15.956;2023-05-03T02:09:07;8.80;;;4.50;;
67986;SDS011;54767;53.800;15.956;2023-05-03T02:11:36;8.10;;;4.40;;
67986;SDS011;54767;53.800;15.956;2023-05-03T02:14:04;10.20;;;5.20;;
67986;SDS011;54767;53.800;15.956;2023-05-03T02:16:32;10.90;;;5.00;;
67986;SDS011;54767;53.800;15.956;2023-05-03T02:19:01;10.70;;;5.10;;
67986;SDS011;54767;53.800;15.956;2023-05-03T02:21:29;7.40;;;4.30;;
67986;SDS011;54767;53.800;15.956;2023-05-03T02:23:58;6.60;;;4.30;;
67986;SDS011;54767;53.800;15.956;2023-05-03T02:26:26;9.40;;;5.10;;
67986;SDS011;54767;53.800;15.956;2023-05-03T02:28:55;8.60;;;5.00;;
67986;SDS011;54767;53.800;15.956;2023-05-03T02:31:25;7.90;;;4.50;;
67986;SDS011;54767;53.800;15.956;2023-05-03T02:33:53;9.10;;;4.20;;
67986;SDS011;54767;53.800;15.956;2023-05-03T02:36:22;10.90;;;4.90;;
67986;SDS011;54767;53.800;15.956;2023-05-03T02:38:50;7.00;;;4.30;;
67986;SDS011;54767;53.800;15.956;2023-05-03T02:41:19;9.20;;;5.00;;
67986;SDS011;54767;53.800;15.956;2023-05-03T02:43:47;13.90;;;5.40;;
67986;SDS011;54767;53.800;15.956;2023-05-03T02:46:16;8.60;;;4.80;;
67986;SDS011;54767;53.800;15.956;2023-05-03T02:48:44;10.10;;;4.70;;
67986;SDS011;54767;53.800;15.956;2023-05-03T02:51:12;8.90;;;4.70;;
67986;SDS011;54767;53.800;15.956;2023-05-03T02:53:41;9.40;;;4.80;;
67986;SDS011;54767;53.800;15.956;2023-05-03T02:56:09;8.40;;;4.80;;
67986;SDS011;54767;53.800;15.956;2023-05-03T02:58:37;9.10;;;5.50;;
67986;SDS011;54767;53.800;15.956;2023-05-03T03:01:06;9.40;;;4.80;;
67986;SDS011;54767;53.800;15.956;2023-05-03T03:03:34;10.50;;;4.90;;
67986;SDS011;54767;53.800;15.956;2023-05-03T03:06:03;9.70;;;5.30;;
67986;SDS011;54767;53.800;15.956;2023-05-03T03:08:31;9.80;;;5.40;;
67986;SDS011;54767;53.800;15.956;2023-05-03T03:10:59;8.00;;;4.60;;
67986;SDS011;54767;53.800;15.956;2023-05-03T03:13:28;7.30;;;4.50;;
67986;SDS011;54767;53.800;15.956;2023-05-03T03:15:56;8.30;;;4.30;;
67986;SDS011;54767;53.800;15.956;2023-05-03T03:18:24;8.60;;;4.40;;
67986;SDS011;54767;53.800;15.956;2023-05-03T03:20:53;7.50;;;4.70;;
67986;SDS011;54767;53.800;15.956;2023-05-03T03:23:21;8.60;;;4.60;;
67986;SDS011;54767;53.800;15.956;2023-05-03T03:25:49;8.60;;;4.70;;
67986;SDS011;54767;53.800;15.956;2023-05-03T03:28:18;11.20;;;4.70;;
67986;SDS011;54767;53.800;15.956;2023-05-03T03:30:46;8.90;;;4.90;;
67986;SDS011;54767;53.800;15.956;2023-05-03T03:33:15;7.20;;;4.30;;
67986;SDS011;54767;53.800;15.956;2023-05-03T03:35:43;7.40;;;4.60;;
67986;SDS011;54767;53.800;15.956;2023-05-03T03:38:12;11.70;;;5.30;;
67986;SDS011;54767;53.800;15.956;2023-05-03T03:40:40;8.70;;;5.20;;
67986;SDS011;54767;53.800;15.956;2023-05-03T03:43:09;11.00;;;5.50;;
67986;SDS011;54767;53.800;15.956;2023-05-03T03:45:37;12.90;;;6.40;;
67986;SDS011;54767;53.800;15.956;2023-05-03T03:48:05;12.70;;;6.00;;
67986;SDS011;54767;53.800;15.956;2023-05-03T03:50:33;12.50;;;6.40;;
67986;SDS011;54767;53.800;15.956;2023-05-03T03:53:02;11.80;;;5.40;;
67986;SDS011;54767;53.800;15.956;2023-05-03T03:55:30;11.80;;;5.60;;
67986;SDS011;54767;53.800;15.956;2023-05-03T03:57:59;9.70;;;5.90;;
67986;SDS011;54767;53.800;15.956;2023-05-03T04:00:28;10.20;;;5.30;;
67986;SDS011;54767;53.800;15.956;2023-05-03T04:02:57;10.40;;;5.70;;
67986;SDS011;54767;53.800;15.956;2023-05-03T04:05:26;7.60;;;4.50;;
67986;SDS011;54767;53.800;15.956;2023-05-03T04:07:55;8.90;;;4.90;;
67986;SDS011;54767;53.800;15.956;2023-05-03T04:10:24;9.60;;;5.30;;
67986;SDS011;54767;53.800;15.956;2023-05-03T04:12:54;10.30;;;4.80;;
67986;SDS011;54767;53.800;15.956;2023-05-03T04:15:22;10.30;;;4.90;;
67986;SDS011;54767;53.800;15.956;2023-05-03T04:17:51;9.30;;;5.10;;
67986;SDS011;54767;53.800;15.956;2023-05-03T04:20:20;11.60;;;5.30;;
67986;SDS011;54767;53.800;15.956;2023-05-03T04:22:50;12.00;;;4.90;;
67986;SDS011;54767;53.800;15.956;2023-05-03T04:25:19;10.10;;;4.90;;
67986;SDS011;54767;53.800;15.956;2023-05-03T04:27:47;9.60;;;5.20;;
67986;SDS011;54767;53.800;15.956;2023-05-03T04:30:16;11.50;;;5.00;;
67986;SDS011;54767;53.800;15.956;2023-05-03T04:32:45;12.90;;;4.80;;
67986;SDS011;54767;53.800;15.956;2023-05-03T04:35:14;11.00;;;4.90;;
67986;SDS011;54767;53.800;15.956;2023-05-03T04:37:43;10.50;;;5.20;;
67986;SDS011;54767;53.800;15.956;2023-05-03T04:40:11;8.60;;;4.90;;
67986;SDS011;54767;53.800;15.956;2023-05-03T04:42:40;12.00;;;5.20;;
67986;SDS011;54767;53.800;15.956;2023-05-03T04:45:09;10.80;;;4.90;;
67986;SDS011;54767;53.800;15.956;2023-05-03T04:47:38;10.30;;;5.10;;
67986;SDS011;54767;53.800;15.956;2023-05-03T04:50:07;9.30;;;4.60;;
67986;SDS011;54767;53.800;15.956;2023-05-03T04:52:38;10.10;;;4.60;;
67986;SDS011;54767;53.800;15.956;2023-05-03T04:55:06;11.80;;;5.60;;
67986;SDS011;54767;53.800;15.956;2023-05-03T04:57:35;8.30;;;5.30;;
67986;SDS011;54767;53.800;15.956;2023-05-03T05:00:05;11.70;;;6.20;;
67986;SDS011;54767;53.800;15.956;2023-05-03T05:02:38;10.50;;;5.20;;
67986;SDS011;54767;53.800;15.956;2023-05-03T05:05:07;11.40;;;5.50;;
67986;SDS011;54767;53.800;15.956;2023-05-03T05:07:36;11.30;;;4.90;;
67986;SDS011;54767;53.800;15.956;2023-05-03T05:10:04;10.30;;;5.10;;
67986;SDS011;54767;53.800;15.956;2023-05-03T05:12:33;10.00;;;5.00;;
67986;SDS011;54767;53.800;15.956;2023-05-03T05:15:02;13.40;;;5.10;;
67986;SDS011;54767;53.800;15.956;2023-05-03T05:17:31;9.80;;;5.30;;
67986;SDS011;54767;53.800;15.956;2023-05-03T05:19:59;11.00;;;5.00;;
67986;SDS011;54767;53.800;15.956;2023-05-03T05:22:28;14.30;;;5.50;;
67986;SDS011;54767;53.800;15.956;2023-05-03T05:24:56;11.40;;;5.40;;
67986;SDS011;54767;53.800;15.956;2023-05-03T05:27:25;12.90;;;5.60;;
67986;SDS011;54767;53.800;15.956;2023-05-03T05:29:54;8.40;;;5.00;;
67986;SDS011;54767;53.800;15.956;2023-05-03T05:32:22;10.40;;;5.50;;
67986;SDS011;54767;53.800;15.956;2023-05-03T05:34:51;11.50;;;5.20;;
67986;SDS011;54767;53.800;15.956;2023-05-03T05:37:22;13.00;;;5.80;;
67986;SDS011;54767;53.800;15.956;2023-05-03T05:39:52;11.10;;;5.70;;
67986;SDS011;54767;53.800;15.956;2023-05-03T05:42:22;11.30;;;5.80;;
67986;SDS011;54767;53.800;15.956;2023-05-03T05:44:51;9.30;;;5.30;;
67986;SDS011;54767;53.800;15.956;2023-05-03T05:47:20;11.40;;;5.10;;
67986;SDS011;54767;53.800;15.956;2023-05-03T05:49:48;10.40;;;5.70;;
67986;SDS011;54767;53.800;15.956;2023-05-03T05:52:17;11.10;;;5.40;;
67986;SDS011;54767;53.800;15.956;2023-05-03T05:54:45;12.20;;;5.80;;
67986;SDS011;54767;53.800;15.956;2023-05-03T05:57:13;14.90;;;6.80;;
67986;SDS011;54767;53.800;15.956;2023-05-03T05:59:42;10.60;;;6.00;;
67986;SDS011;54767;53.800;15.956;2023-05-03T06:02:14;11.70;;;5.70;;
67986;SDS011;54767;53.800;15.956;2023-05-03T06:04:50;11.60;;;5.50;;
67986;SDS011;54767;53.800;15.956;2023-05-03T06:07:18;12.20;;;5.40;;
67986;SDS011;54767;53.800;15.956;2023-05-03T06:09:47;12.70;;;5.80;;
67986;SDS011;54767;53.800;15.956;2023-05-03T06:12:16;11.90;;;5.70;;
67986;SDS011;54767;53.800;15.956;2023-05-03T06:14:45;9.50;;;5.50;;
67986;SDS011;54767;53.800;15.956;2023-05-03T06:17:29;12.30;;;6.10;;
67986;SDS011;54767;53.800;15.956;2023-05-03T06:19:57;11.50;;;5.50;;
67986;SDS011;54767;53.800;15.956;2023-05-03T06:22:26;12.10;;;5.90;;
67986;SDS011;54767;53.800;15.956;2023-05-03T06:24:54;10.30;;;5.70;;
67986;SDS011;54767;53.800;15.956;2023-05-03T06:27:23;12.10;;;5.60;;
67986;SDS011;54767;53.800;15.956;2023-05-03T06:29:58;12.80;;;5.70;;
67986;SDS011;54767;53.800;15.956;2023-05-03T06:32:27;11.80;;;5.60;;
67986;SDS011;54767;53.800;15.956;2023-05-03T06:34:56;13.10;;;5.40;;
67986;SDS011;54767;53.800;15.956;2023-05-03T06:37:26;10.50;;;5.30;;
67986;SDS011;54767;53.800;15.956;2023-05-03T06:39:54;10.70;;;5.40;;
67986;SDS011;54767;53.800;15.956;2023-05-03T06:42:23;11.50;;;5.40;;
67986;SDS011;54767;53.800;15.956;2023-05-03T06:44:52;13.20;;;5.20;;
67986;SDS011;54767;53.800;15.956;2023-05-03T06:47:21;10.90;;;5.40;;
67986;SDS011;54767;53.800;15.956;2023-05-03T06:49:49;10.40;;;5.00;;
67986;SDS011;54767;53.800;15.956;2023-05-03T06:52:18;10.40;;;5.70;;
67986;SDS011;54767;53.800;15.956;2023-05-03T06:54:47;9.70;;;5.30;;
67986;SDS011;54767;53.800;15.956;2023-05-03T06:57:20;14.40;;;5.50;;
67986;SDS011;54767;53.800;15.956;2023-05-03T06:59:49;10.10;;;5.20;;
67986;SDS011;54767;53.800;15.956;2023-05-03T07:02:18;13.90;;;5.10;;
67986;SDS011;54767;53.800;15.956;2023-05-03T07:04:46;11.90;;;5.40;;
67986;SDS011;54767;53.800;15.956;2023-05-03T07:07:14;10.70;;;4.90;;
67986;SDS011;54767;53.800;15.956;2023-05-03T07:09:43;9.70;;;5.10;;
67986;SDS011;54767;53.800;15.956;2023-05-03T07:12:11;12.20;;;5.00;;
67986;SDS011;54767;53.800;15.956;2023-05-03T07:14:40;10.10;;;5.00;;
67986;SDS011;54767;53.800;15.956;2023-05-03T07:17:08;10.70;;;5.20;;
67986;SDS011;54767;53.800;15.956;2023-05-03T07:19:37;10.50;;;5.00;;
67986;SDS011;54767;53.800;15.956;2023-05-03T07:22:05;10.70;;;4.80;;
67986;SDS011;54767;53.800;15.956;2023-05-03T07:24:34;13.00;;;4.70;;
67986;SDS011;54767;53.800;15.956;2023-05-03T07:27:03;11.40;;;5.40;;
67986;SDS011;54767;53.800;15.956;2023-05-03T07:29:31;12.50;;;4.60;;
67986;SDS011;54767;53.800;15.956;2023-05-03T07:32:00;9.60;;;4.40;;
67986;SDS011;54767;53.800;15.956;2023-05-03T07:34:28;8.40;;;4.60;;
67986;SDS011;54767;53.800;15.956;2023-05-03T07:36:57;6.70;;;4.50;;
67986;SDS011;54767;53.800;15.956;2023-05-03T07:39:26;8.90;;;4.60;;
67986;SDS011;54767;53.800;15.956;2023-05-03T07:41:54;10.70;;;5.10;;
67986;SDS011;54767;53.800;15.956;2023-05-03T07:44:22;10.10;;;4.70;;
67986;SDS011;54767;53.800;15.956;2023-05-03T07:46:51;13.40;;;5.10;;
67986;SDS011;54767;53.800;15.956;2023-05-03T07:49:20;13.80;;;5.20;;
67986;SDS011;54767;53.800;15.956;2023-05-03T07:51:49;9.50;;;4.30;;
67986;SDS011;54767;53.800;15.956;2023-05-03T07:54:18;8.50;;;4.60;;
67986;SDS011;54767;53.800;15.956;2023-05-03T07:56:46;9.40;;;4.30;;
67986;SDS011;54767;53.800;15.956;2023-05-03T07:59:14;8.30;;;3.90;;
67986;SDS011;54767;53.800;15.956;2023-05-03T08:01:43;8.80;;;3.70;;
67986;SDS011;54767;53.800;15.956;2023-05-03T08:04:11;8.70;;;3.90;;
67986;SDS011;54767;53.800;15.956;2023-05-03T08:06:40;8.30;;;4.00;;
67986;SDS011;54767;53.800;15.956;2023-05-03T08:11:38;8.10;;;4.00;;
67986;SDS011;54767;53.800;15.956;2023-05-03T08:14:11;12.50;;;4.10;;
67986;SDS011;54767;53.800;15.956;2023-05-03T08:16:39;11.20;;;4.40;;
67986;SDS011;54767;53.800;15.956;2023-05-03T08:19:08;11.90;;;4.40;;
67986;SDS011;54767;53.800;15.956;2023-05-03T08:21:36;5.30;;;3.80;;
67986;SDS011;54767;53.800;15.956;2023-05-03T08:24:04;8.50;;;4.00;;
67986;SDS011;54767;53.800;15.956;2023-05-03T08:26:35;5.70;;;3.80;;
67986;SDS011;54767;53.800;15.956;2023-05-03T08:29:03;11.30;;;5.40;;
67986;SDS011;54767;53.800;15.956;2023-05-03T08:31:32;7.60;;;3.50;;
67986;SDS011;54767;53.800;15.956;2023-05-03T08:34:01;7.20;;;3.70;;
67986;SDS011;54767;53.800;15.956;2023-05-03T08:36:30;8.60;;;3.70;;
67986;SDS011;54767;53.800;15.956;2023-05-03T08:39:00;9.00;;;3.70;;
67986;SDS011;54767;53.800;15.956;2023-05-03T08:41:29;6.20;;;3.40;;
67986;SDS011;54767;53.800;15.956;2023-05-03T08:43:58;9.10;;;3.80;;
67986;SDS011;54767;53.800;15.956;2023-05-03T08:48:59;6.00;;;3.60;;
67986;SDS011;54767;53.800;15.956;2023-05-03T08:51:28;6.90;;;3.60;;
67986;SDS011;54767;53.800;15.956;2023-05-03T08:53:56;7.80;;;4.30;;
67986;SDS011;54767;53.800;15.956;2023-05-03T08:56:27;5.80;;;3.40;;
67986;SDS011;54767;53.800;15.956;2023-05-03T08:58:58;5.60;;;3.30;;
67986;SDS011;54767;53.800;15.956;2023-05-03T09:01:34;5.50;;;3.20;;
67986;SDS011;54767;53.800;15.956;2023-05-03T09:04:04;6.40;;;3.20;;
67986;SDS011;54767;53.800;15.956;2023-05-03T09:06:33;10.00;;;3.60;;
67986;SDS011;54767;53.800;15.956;2023-05-03T09:09:04;8.10;;;3.00;;
67986;SDS011;54767;53.800;15.956;2023-05-03T09:11:37;6.10;;;3.30;;
67986;SDS011;54767;53.800;15.956;2023-05-03T09:14:07;7.30;;;3.00;;
67986;SDS011;54767;53.800;15.956;2023-05-03T09:16:40;6.10;;;2.90;;
67986;SDS011;54767;53.800;15.956;2023-05-03T09:19:13;8.00;;;3.00;;
67986;SDS011;54767;53.800;15.956;2023-05-03T09:21:43;5.90;;;3.00;;
67986;SDS011;54767;53.800;15.956;2023-05-03T09:24:16;4.80;;;2.50;;
67986;SDS011;54767;53.800;15.956;2023-05-03T09:26:47;7.20;;;3.30;;
67986;SDS011;54767;53.800;15.956;2023-05-03T09:29:31;6.00;;;3.00;;
67986;SDS011;54767;53.800;15.956;2023-05-03T09:32:03;3.50;;;2.50;;
67986;SDS011;54767;53.800;15.956;2023-05-03T09:34:33;6.30;;;2.90;;
67986;SDS011;54767;53.800;15.956;2023-05-03T09:37:02;4.80;;;2.80;;
67986;SDS011;54767;53.800;15.956;2023-05-03T09:39:31;6.80;;;3.00;;
67986;SDS011;54767;53.800;15.956;2023-05-03T09:42:08;8.60;;;2.80;;
67986;SDS011;54767;53.800;15.956;2023-05-03T09:44:41;4.50;;;2.70;;
67986;SDS011;54767;53.800;15.956;2023-05-03T09:47:11;5.40;;;2.90;;
67986;SDS011;54767;53.800;15.956;2023-05-03T09:49:40;4.80;;;2.70;;
67986;SDS011;54767;53.800;15.956;2023-05-03T09:52:08;3.60;;;2.40;;
67986;SDS011;54767;53.800;15.956;2023-05-03T09:54:38;6.90;;;2.70;;
67986;SDS011;54767;53.800;15.956;2023-05-03T09:59:40;5.30;;;2.70;;
67986;SDS011;54767;53.800;15.956;2023-05-03T10:02:17;3.70;;;2.40;;
67986;SDS011;54767;53.800;15.956;2023-05-03T12:15:54;3.20;;;1.90;;
67986;SDS011;54767;53.800;15.956;2023-05-03T17:50:55;5.30;;;2.00;;
67986;SDS011;54767;53.800;15.956;2023-05-03T19:22:48;6.90;;;2.90;;
67986;SDS011;54767;53.800;15.956;2023-05-03T19:25:17;7.20;;;2.60;;
67986;SDS011;54767;53.800;15.956;2023-05-03T19:27:45;5.50;;;2.60;;
67986;SDS011;54767;53.800;15.956;2023-05-03T19:30:13;6.10;;;3.20;;
67986;SDS011;54767;53.800;15.956;2023-05-03T19:32:42;8.40;;;3.70;;
67986;SDS011;54767;53.800;15.956;2023-05-03T19:35:11;5.80;;;3.50;;
67986;SDS011;54767;53.800;15.956;2023-05-03T19:37:39;7.80;;;3.40;;
67986;SDS011;54767;53.800;15.956;2023-05-03T19:40:09;7.20;;;3.10;;
67986;SDS011;54767;53.800;15.956;2023-05-03T19:42:38;8.50;;;3.20;;
67986;SDS011;54767;53.800;15.956;2023-05-03T19:45:07;8.70;;;3.10;;
67986;SDS011;54767;53.800;15.956;2023-05-03T19:47:36;7.30;;;3.40;;
67986;SDS011;54767;53.800;15.956;2023-05-03T19:50:06;6.80;;;3.40;;
67986;SDS011;54767;53.800;15.956;2023-05-03T19:52:35;9.50;;;3.50;;
67986;SDS011;54767;53.800;15.956;2023-05-03T19:55:04;7.90;;;3.40;;
67986;SDS011;54767;53.800;15.956;2023-05-03T19:57:34;8.30;;;3.90;;
67986;SDS011;54767;53.800;15.956;2023-05-03T20:00:04;10.40;;;4.70;;
67986;SDS011;54767;53.800;15.956;2023-05-03T20:02:34;15.90;;;6.70;;
67986;SDS011;54767;53.800;15.956;2023-05-03T20:05:04;12.40;;;5.40;;
67986;SDS011;54767;53.800;15.956;2023-05-03T20:07:34;10.70;;;4.50;;
67986;SDS011;54767;53.800;15.956;2023-05-03T20:10:02;10.60;;;4.70;;
67986;SDS011;54767;53.800;15.956;2023-05-03T20:12:35;11.90;;;4.30;;
67986;SDS011;54767;53.800;15.956;2023-05-03T20:15:04;10.20;;;4.30;;
67986;SDS011;54767;53.800;15.956;2023-05-03T20:17:33;12.20;;;5.00;;
67986;SDS011;54767;53.800;15.956;2023-05-03T20:20:06;13.20;;;6.20;;
67986;SDS011;54767;53.800;15.956;2023-05-03T20:22:48;16.90;;;7.60;;
67986;SDS011;54767;53.800;15.956;2023-05-03T20:25:19;16.50;;;8.00;;
67986;SDS011;54767;53.800;15.956;2023-05-03T20:27:52;19.30;;;8.80;;
67986;SDS011;54767;53.800;15.956;2023-05-03T20:30:21;22.40;;;10.40;;
67986;SDS011;54767;53.800;15.956;2023-05-03T20:32:49;26.20;;;12.60;;
67986;SDS011;54767;53.800;15.956;2023-05-03T20:35:18;30.10;;;13.50;;
67986;SDS011;54767;53.800;15.956;2023-05-03T20:37:46;32.00;;;14.10;;
67986;SDS011;54767;53.800;15.956;2023-05-03T20:40:15;31.20;;;14.60;;
67986;SDS011;54767;53.800;15.956;2023-05-03T20:42:56;23.70;;;10.60;;
67986;SDS011;54767;53.800;15.956;2023-05-03T20:45:24;29.10;;;13.70;;
67986;SDS011;54767;53.800;15.956;2023-05-03T20:48:06;45.40;;;24.10;;
67986;SDS011;54767;53.800;15.956;2023-05-03T20:50:36;42.90;;;24.30;;
67986;SDS011;54767;53.800;15.956;2023-05-03T20:53:06;41.40;;;25.50;;
67986;SDS011;54767;53.800;15.956;2023-05-03T20:55:35;38.60;;;25.30;;
67986;SDS011;54767;53.800;15.956;2023-05-03T20:58:06;31.40;;;20.50;;
67986;SDS011;54767;53.800;15.956;2023-05-03T21:00:49;29.40;;;19.10;;
67986;SDS011;54767;53.800;15.956;2023-05-03T21:03:23;27.80;;;18.60;;
67986;SDS011;54767;53.800;15.956;2023-05-03T21:08:24;19.60;;;12.80;;
67986;SDS011;54767;53.800;15.956;2023-05-03T21:10:53;19.30;;;9.90;;
67986;SDS011;54767;53.800;15.956;2023-05-03T21:13:22;16.50;;;8.10;;
67986;SDS011;54767;53.800;15.956;2023-05-03T21:15:50;15.00;;;7.00;;
67986;SDS011;54767;53.800;15.956;2023-05-03T21:18:19;14.90;;;6.70;;
67986;SDS011;54767;53.800;15.956;2023-05-03T21:20:51;11.90;;;6.00;;
67986;SDS011;54767;53.800;15.956;2023-05-03T21:23:21;11.50;;;5.50;;
67986;SDS011;54767;53.800;15.956;2023-05-03T21:25:49;11.60;;;4.90;;
67986;SDS011;54767;53.800;15.956;2023-05-03T21:28:22;11.60;;;5.20;;
67986;SDS011;54767;53.800;15.956;2023-05-03T21:30:55;15.70;;;6.10;;
67986;SDS011;54767;53.800;15.956;2023-05-03T21:33:23;15.10;;;6.70;;
67986;SDS011;54767;53.800;15.956;2023-05-03T21:35:52;12.50;;;7.30;;
67986;SDS011;54767;53.800;15.956;2023-05-03T21:38:24;12.90;;;6.60;;
67986;SDS011;54767;53.800;15.956;2023-05-03T21:41:00;11.60;;;5.90;;
67986;SDS011;54767;53.800;15.956;2023-05-03T21:43:29;11.70;;;6.30;;
67986;SDS011;54767;53.800;15.956;2023-05-03T21:45:59;13.30;;;7.00;;
67986;SDS011;54767;53.800;15.956;2023-05-03T21:48:27;18.20;;;8.50;;
67986;SDS011;54767;53.800;15.956;2023-05-03T21:50:56;18.70;;;8.50;;
67986;SDS011;54767;53.800;15.956;2023-05-03T21:53:27;20.50;;;10.30;;
67986;SDS011;54767;53.800;15.956;2023-05-03T21:55:55;19.80;;;8.80;;
67986;SDS011;54767;53.800;15.956;2023-05-03T21:58:24;17.30;;;8.20;;
67986;SDS011;54767;53.800;15.956;2023-05-03T22:00:52;18.90;;;8.90;;
67986;SDS011;54767;53.800;15.956;2023-05-03T22:03:21;17.50;;;8.20;;
67986;SDS011;54767;53.800;15.956;2023-05-03T22:05:50;18.30;;;8.10;;
67986;SDS011;54767;53.800;15.956;2023-05-03T22:08:21;17.60;;;6.90;;
67986;SDS011;54767;53.800;15.956;2023-05-03T22:10:50;15.40;;;7.30;;
67986;SDS011;54767;53.800;15.956;2023-05-03T22:13:19;17.40;;;7.60;;
67986;SDS011;54767;53.800;15.956;2023-05-03T22:15:47;17.40;;;7.50;;
67986;SDS011;54767;53.800;15.956;2023-05-03T22:18:16;16.30;;;6.60;;
67986;SDS011;54767;53.800;15.956;2023-05-03T22:20:44;13.40;;;6.10;;
67986;SDS011;54767;53.800;15.956;2023-05-03T22:23:12;12.90;;;6.50;;
67986;SDS011;54767;53.800;15.956;2023-05-03T22:25:42;13.00;;;6.20;;
67986;SDS011;54767;53.800;15.956;2023-05-03T22:28:10;14.70;;;6.50;;
67986;SDS011;54767;53.800;15.956;2023-05-03T22:30:39;12.50;;;6.70;;
67986;SDS011;54767;53.800;15.956;2023-05-03T22:33:07;12.40;;;6.60;;
67986;SDS011;54767;53.800;15.956;2023-05-03T22:35:36;13.20;;;6.00;;
67986;SDS011;54767;53.800;15.956;2023-05-03T22:38:04;15.50;;;6.70;;
67986;SDS011;54767;53.800;15.956;2023-05-03T22:40:32;13.60;;;5.80;;
67986;SDS011;54767;53.800;15.956;2023-05-03T22:43:01;14.50;;;6.50;;
67986;SDS011;54767;53.800;15.956;2023-05-03T22:45:30;12.60;;;6.50;;
67986;SDS011;54767;53.800;15.956;2023-05-03T22:47:58;12.20;;;5.60;;
67986;SDS011;54767;53.800;15.956;2023-05-03T22:50:27;12.40;;;5.60;;
67986;SDS011;54767;53.800;15.956;2023-05-03T22:52:55;15.20;;;5.20;;
67986;SDS011;54767;53.800;15.956;2023-05-03T22:55:24;12.10;;;5.40;;
67986;SDS011;54767;53.800;15.956;2023-05-03T22:57:53;16.30;;;6.50;;
67986;SDS011;54767;53.800;15.956;2023-05-03T23:00:28;15.20;;;6.80;;
67986;SDS011;54767;53.800;15.956;2023-05-03T23:02:56;17.10;;;7.40;;
67986;SDS011;54767;53.800;15.956;2023-05-03T23:05:25;17.10;;;7.70;;
67986;SDS011;54767;53.800;15.956;2023-05-03T23:07:54;15.10;;;6.70;;
67986;SDS011;54767;53.800;15.956;2023-05-03T23:10:22;10.70;;;5.60;;
67986;SDS011;54767;53.800;15.956;2023-05-03T23:12:51;12.60;;;5.30;;
67986;SDS011;54767;53.800;15.956;2023-05-03T23:15:20;9.40;;;4.70;;
67986;SDS011;54767;53.800;15.956;2023-05-03T23:17:49;11.50;;;5.10;;
67986;SDS011;54767;53.800;15.956;2023-05-03T23:20:17;13.50;;;6.10;;
67986;SDS011;54767;53.800;15.956;2023-05-03T23:22:46;12.00;;;6.30;;
67986;SDS011;54767;53.800;15.956;2023-05-03T23:25:15;10.90;;;6.10;;
67986;SDS011;54767;53.800;15.956;2023-05-03T23:27:43;14.40;;;6.50;;
67986;SDS011;54767;53.800;15.956;2023-05-03T23:30:12;12.70;;;6.20;;
67986;SDS011;54767;53.800;15.956;2023-05-03T23:32:41;15.40;;;6.70;;
67986;SDS011;54767;53.800;15.956;2023-05-03T23:35:10;11.90;;;6.20;;
67986;SDS011;54767;53.800;15.956;2023-05-03T23:37:38;12.70;;;5.90;;
67986;SDS011;54767;53.800;15.956;2023-05-03T23:40:07;12.30;;;6.10;;
67986;SDS011;54767;53.800;15.956;2023-05-03T23:42:35;10.70;;;6.00;;
67986;SDS011;54767;53.800;15.956;2023-05-03T23:45:07;9.30;;;5.80;;
67986;SDS011;54767;53.800;15.956;2023-05-03T23:50:04;12.20;;;5.40;;
67986;SDS011;54767;53.800;15.956;2023-05-03T23:52:34;7.90;;;4.80;;
67986;SDS011;54767;53.800;15.956;2023-05-03T23:55:03;12.00;;;5.60;;
67986;SDS011;54767;53.800;15.956;2023-05-03T23:57:32;13.50;;;6.30;;
